Time;durP1;ratioP1;P1;durP2;ratioP2;P2;SDS_P1;SDS_P2;PMS_P1;PMS_P2;Temp;Humidity;BMP_temperature;BMP_pressure;BME280_temperature;BME280_humidity;BME280_pressure;Samples;Min_cycle;Max_cycle;Signal;HPM_P1;HPM_P2
2022/09/10 00:01:50;287194.00;0.96;495.91;0.00;0.00;0.62;;;;;21.40;1.00;;;;;;2272618;61;1634;-87
2022/09/10 00:04:17;280221.00;0.93;483.92;0.00;0.00;0.62;;;;;21.30;1.00;;;;;;2272620;61;1648;-87
2022/09/10 00:06:45;279159.00;0.93;482.09;0.00;0.00;0.62;;;;;21.30;1.00;;;;;;2272673;61;994;-87
2022/09/10 00:09:12;175330.00;0.58;303.45;0.00;0.00;0.62;;;;;21.60;1.00;;;;;;2272556;61;1992;-87
2022/09/10 00:11:40;168439.00;0.56;291.58;0.00;0.00;0.62;;;;;21.40;1.00;;;;;;2272625;61;1458;-86
2022/09/10 00:14:14;208873.00;0.70;361.20;0.00;0.00;0.62;;;;;21.30;1.00;;;;;;2272553;61;1083;-88
2022/09/10 00:16:41;79463.00;0.26;138.11;0.00;0.00;0.62;;;;;21.10;1.00;;;;;;2272611;61;1175;-86
2022/09/10 00:19:07;269415.00;0.90;465.34;0.00;0.00;0.62;;;;;21.10;1.00;;;;;;2272622;61;1025;-87
2022/09/10 00:21:34;350761.00;1.17;605.17;0.00;0.00;0.62;;;;;21.30;1.00;;;;;;2272581;61;1365;-87
2022/09/10 00:24:02;177689.00;0.59;307.51;0.00;0.00;0.62;;;;;21.70;1.00;;;;;;2272582;61;1131;-87
2022/09/10 00:26:33;115568.00;0.39;200.44;0.00;0.00;0.62;;;;;21.60;1.00;;;;;;2272590;61;1126;-87
2022/09/10 00:29:00;277898.00;0.93;479.92;0.00;0.00;0.62;;;;;21.40;1.00;;;;;;2272539;61;2001;-88
2022/09/10 00:31:30;92922.00;0.31;161.35;0.00;0.00;0.62;;;;;21.60;1.00;;;;;;2272540;61;1436;-86
2022/09/10 00:33:59;69832.00;0.23;121.47;0.00;0.00;0.62;;;;;21.50;1.00;;;;;;2272537;61;1152;-87
2022/09/10 00:36:27;87764.00;0.29;152.45;0.00;0.00;0.62;;;;;21.60;1.00;;;;;;2272479;61;987;-87
2022/09/10 00:38:58;135301.00;0.45;234.47;0.00;0.00;0.62;;;;;21.50;1.00;;;;;;2272516;61;1031;-88
2022/09/10 00:41:26;94892.00;0.32;164.75;0.00;0.00;0.62;;;;;21.40;1.00;;;;;;2272546;61;1587;-87
2022/09/10 00:43:55;102125.00;0.34;177.24;0.00;0.00;0.62;;;;;21.40;1.00;;;;;;2272531;61;1082;-88
2022/09/10 00:46:36;30905.00;0.10;54.15;0.00;0.00;0.62;;;;;21.40;1.00;;;;;;2272472;61;1127;-88
2022/09/10 00:49:11;197345.00;0.66;341.35;0.00;0.00;0.62;;;;;21.50;1.00;;;;;;2272443;61;1920;-87
2022/09/10 00:51:39;140677.00;0.47;243.74;0.00;0.00;0.62;;;;;21.60;1.00;;;;;;2272438;61;2560;-87
2022/09/10 00:54:07;228427.00;0.76;394.84;0.00;0.00;0.62;;;;;21.50;1.00;;;;;;2272441;61;1118;-87
2022/09/10 00:56:34;199290.00;0.66;344.70;0.00;0.00;0.62;;;;;21.70;1.00;;;;;;2272497;61;1067;-87
2022/09/10 00:59:04;336564.00;1.12;580.77;14775.00;0.05;26.22;;;;;21.80;1.00;;;;;;2272398;61;997;-86
2022/09/10 01:01:35;49581.00;0.17;86.46;0.00;0.00;0.62;;;;;21.90;1.00;;;;;;2272420;61;1392;-86
2022/09/10 01:04:03;78373.00;0.26;136.23;0.00;0.00;0.62;;;;;21.80;1.00;;;;;;2272412;61;1013;-90
2022/09/10 01:06:30;42891.00;0.14;74.89;0.00;0.00;0.62;;;;;21.70;1.00;;;;;;2272402;61;1105;-86
2022/09/10 01:08:57;169603.00;0.57;293.58;0.00;0.00;0.62;;;;;21.60;1.00;;;;;;2272444;61;1989;-86
2022/09/10 01:11:49;86775.00;0.29;150.74;0.00;0.00;0.62;;;;;21.60;1.00;;;;;;2272396;61;1392;-88
2022/09/10 01:14:36;0.00;0.00;0.62;0.00;0.00;0.62;;;;;21.60;1.00;;;;;;2272440;61;1033;-88
2022/09/10 01:17:17;0.00;0.00;0.62;0.00;0.00;0.62;;;;;21.40;1.00;;;;;;2272393;61;1047;-87
2022/09/10 01:20:23;0.00;0.00;0.62;0.00;0.00;0.62;;;;;21.40;1.00;;;;;;2272285;61;1854;-87
2022/09/10 01:23:17;0.00;0.00;0.62;0.00;0.00;0.62;;;;;21.20;1.00;;;;;;2271466;61;1666;-88
2022/09/10 01:25:54;0.00;0.00;0.62;0.00;0.00;0.62;;;;;21.10;1.00;;;;;;2272368;61;943;-88
2022/09/10 01:28:31;263661.00;0.88;455.44;72237.00;0.24;125.63;;;;;21.20;1.00;;;;;;2272343;61;1970;-89
2022/09/10 01:31:10;34568.00;0.12;60.49;0.00;0.00;0.62;;;;;21.50;1.00;;;;;;2272390;61;1367;-88
2022/09/10 01:33:42;0.00;0.00;0.62;0.00;0.00;0.62;;;;;21.70;1.00;;;;;;2272430;61;1043;-89
2022/09/10 01:36:16;75837.00;0.25;131.85;0.00;0.00;0.62;;;;;21.70;1.00;;;;;;2272424;61;1130;-87
2022/09/10 01:38:43;45993.00;0.15;80.26;0.00;0.00;0.62;;;;;21.70;1.00;;;;;;2272350;61;1673;-88
2022/09/10 01:41:12;42454.00;0.14;74.13;0.00;0.00;0.62;;;;;21.90;1.00;;;;;;2272286;61;1640;-88
2022/09/10 01:43:41;101994.00;0.34;177.01;35891.00;0.12;62.78;;;;;21.80;1.00;;;;;;2272384;61;1139;-87
2022/09/10 01:46:22;19744.00;0.07;34.83;0.00;0.00;0.62;;;;;21.90;1.00;;;;;;2272377;61;1078;-87
2022/09/10 01:49:20;25676.00;0.09;45.10;0.00;0.00;0.62;;;;;21.80;1.00;;;;;;2272284;61;1974;-88
2022/09/10 01:52:11;0.00;0.00;0.62;0.00;0.00;0.62;;;;;21.90;1.00;;;;;;2272348;61;1327;-87
2022/09/10 01:54:49;160181.00;0.53;277.35;0.00;0.00;0.62;;;;;21.90;1.00;;;;;;2272333;61;1619;-86
2022/09/10 01:57:28;0.00;0.00;0.62;0.00;0.00;0.62;;;;;21.90;1.00;;;;;;2272318;61;1493;-87
2022/09/10 02:00:05;0.00;0.00;0.62;0.00;0.00;0.62;;;;;22.00;1.00;;;;;;2272278;61;1306;-87
2022/09/10 02:02:38;0.00;0.00;0.62;0.00;0.00;0.62;;;;;22.10;1.00;;;;;;2272269;61;1130;-86
2022/09/10 02:05:07;0.00;0.00;0.62;0.00;0.00;0.62;;;;;22.00;1.00;;;;;;2272189;61;916;-88
2022/09/10 02:07:36;477649.00;1.59;823.35;168954.00;0.56;292.46;;;;;21.60;1.00;;;;;;2272242;61;1034;-87
2022/09/10 02:10:06;129407.00;0.43;224.31;24898.00;0.08;43.75;;;;;21.80;1.00;;;;;;2272108;61;2005;-88
2022/09/10 02:12:35;0.00;0.00;0.62;0.00;0.00;0.62;;;;;21.70;1.00;;;;;;2272288;61;1075;-88
2022/09/10 02:15:06;89370.00;0.30;155.22;0.00;0.00;0.62;;;;;21.50;1.00;;;;;;2272216;61;1070;-87
2022/09/10 02:17:37;0.00;0.00;0.62;0.00;0.00;0.62;;;;;21.40;1.00;;;;;;2272150;61;1110;-87
2022/09/10 02:20:06;47739.00;0.16;83.28;0.00;0.00;0.62;;;;;20.80;1.00;;;;;;2272085;61;1329;-85
2022/09/10 02:22:35;90351.00;0.30;156.91;0.00;0.00;0.62;;;;;20.30;1.00;;;;;;2272188;61;1130;-86
2022/09/10 02:25:03;145466.00;0.48;251.99;75517.00;0.25;131.29;;;;;20.30;1.00;;;;;;2272133;61;924;-87
2022/09/10 02:27:30;11899.00;0.04;21.24;0.00;0.00;0.62;;;;;20.20;1.00;;;;;;2272189;61;1095;-87
2022/09/10 02:29:57;0.00;0.00;0.62;0.00;0.00;0.62;;;;;20.10;1.00;;;;;;2272086;61;1993;-89
2022/09/10 02:32:25;39391.00;0.13;68.83;0.00;0.00;0.62;;;;;20.30;1.00;;;;;;2272217;61;1054;-88
2022/09/10 02:34:52;49640.00;0.17;86.56;0.00;0.00;0.62;;;;;20.10;1.00;;;;;;2272087;61;1019;-87
2022/09/10 02:37:19;43081.00;0.14;75.22;0.00;0.00;0.62;;;;;20.20;1.00;;;;;;2272110;61;1734;-87
2022/09/10 02:39:45;144744.00;0.48;250.75;0.00;0.00;0.62;;;;;20.30;1.00;;;;;;2272194;61;1353;-86
2022/09/10 02:42:16;32082.00;0.11;56.19;0.00;0.00;0.62;;;;;20.50;1.00;;;;;;2272113;61;2136;-87
2022/09/10 02:44:43;0.00;0.00;0.62;0.00;0.00;0.62;;;;;20.70;1.00;;;;;;2272136;61;1118;-86
2022/09/10 02:47:11;0.00;0.00;0.62;0.00;0.00;0.62;;;;;20.70;1.00;;;;;;2272129;61;1106;-86
2022/09/10 02:49:39;5544.00;0.02;10.23;0.00;0.00;0.62;;;;;20.70;1.00;;;;;;2272019;61;1908;-88
2022/09/10 02:52:07;0.00;0.00;0.62;0.00;0.00;0.62;;;;;20.80;1.00;;;;;;2272117;61;1018;-87
2022/09/10 02:54:34;27365.00;0.09;48.02;0.00;0.00;0.62;;;;;20.60;1.00;;;;;;2272084;61;1082;-87
2022/09/10 02:57:01;0.00;0.00;0.62;0.00;0.00;0.62;;;;;20.60;1.00;;;;;;2272151;61;1051;-86
2022/09/10 02:59:27;0.00;0.00;0.62;0.00;0.00;0.62;;;;;20.50;1.00;;;;;;2272077;61;1372;-86
2022/09/10 03:01:55;26607.00;0.09;46.71;0.00;0.00;0.62;;;;;20.70;1.00;;;;;;2272015;61;1125;-86
2022/09/10 03:04:22;0.00;0.00;0.62;0.00;0.00;0.62;;;;;20.90;1.00;;;;;;2272030;61;1576;-88
2022/09/10 03:06:52;0.00;0.00;0.62;0.00;0.00;0.62;;;;;21.00;1.00;;;;;;2272169;61;924;-87
2022/09/10 03:09:19;0.00;0.00;0.62;0.00;0.00;0.62;;;;;21.00;1.00;;;;;;2271991;61;1991;-86
2022/09/10 03:11:46;0.00;0.00;0.62;0.00;0.00;0.62;;;;;21.00;1.00;;;;;;2272059;61;1469;-85
2022/09/10 03:14:19;30084.00;0.10;52.73;0.00;0.00;0.62;;;;;21.10;1.00;;;;;;2272016;61;1161;-87
2022/09/10 03:16:46;323086.00;1.08;557.60;16994.00;0.06;30.06;;;;;21.20;1.00;;;;;;2272020;61;1050;-86
2022/09/10 03:19:14;12912.00;0.04;22.99;0.00;0.00;0.62;;;;;21.20;1.00;;;;;;2272772;61;958;-88
2022/09/10 03:21:41;31338.00;0.10;54.90;0.00;0.00;0.62;;;;;21.40;1.00;;;;;;2272784;61;1179;-87
2022/09/10 03:24:10;189678.00;0.63;328.15;14798.00;0.05;26.26;;;;;21.50;1.00;;;;;;2272703;61;1011;-87
2022/09/10 03:26:36;89010.00;0.30;154.60;0.00;0.00;0.62;;;;;21.40;1.00;;;;;;2272793;61;1511;-88
2022/09/10 03:29:04;134488.00;0.45;233.07;0.00;0.00;0.62;;;;;21.30;1.00;;;;;;2272674;61;1993;-88
2022/09/10 03:31:30;252694.00;0.84;436.58;0.00;0.00;0.62;;;;;21.20;1.00;;;;;;2272660;61;1375;-88
2022/09/10 03:34:01;272808.00;0.91;471.17;5393.00;0.02;9.97;;;;;20.90;1.00;;;;;;2272587;61;1574;-89
2022/09/10 03:36:30;575387.00;1.92;991.74;104297.00;0.35;180.99;;;;;20.50;1.00;;;;;;2272698;61;1106;-87
2022/09/10 03:38:57;154626.00;0.52;267.78;0.00;0.00;0.62;;;;;20.20;1.00;;;;;;2272708;61;1631;-87
2022/09/10 03:41:27;28087.00;0.09;49.27;0.00;0.00;0.62;;;;;20.50;1.00;;;;;;2272767;61;1314;-88
2022/09/10 03:43:54;362077.00;1.21;624.62;90429.00;0.30;157.05;;;;;20.50;1.00;;;;;;2272819;61;1054;-87
2022/09/10 03:46:21;0.00;0.00;0.62;0.00;0.00;0.62;;;;;20.30;1.00;;;;;;2272740;61;1025;-87
2022/09/10 03:48:48;0.00;0.00;0.62;0.00;0.00;0.62;;;;;20.50;1.00;;;;;;2272897;61;1986;-88
2022/09/10 03:51:16;317755.00;1.06;548.44;58834.00;0.20;102.46;;;;;20.60;1.00;;;;;;2272776;61;1387;-88
2022/09/10 03:53:43;114612.00;0.38;198.79;0.00;0.00;0.62;;;;;20.70;1.00;;;;;;2272809;61;1030;-88
2022/09/10 03:56:11;194804.00;0.65;336.98;59621.00;0.20;103.82;;;;;21.00;1.00;;;;;;2272793;61;1551;-87
2022/09/10 03:58:39;6872.00;0.02;12.53;0.00;0.00;0.62;;;;;21.00;1.00;;;;;;2272819;61;1012;-87
2022/09/10 04:01:06;133291.00;0.44;231.00;0.00;0.00;0.62;;;;;21.20;1.00;;;;;;2272781;61;1360;-87
2022/09/10 04:03:34;30546.00;0.10;53.53;0.00;0.00;0.62;;;;;21.10;1.00;;;;;;2272880;61;1232;-87
2022/09/10 04:06:00;182252.00;0.61;315.37;0.00;0.00;0.62;;;;;21.10;1.00;;;;;;2272865;61;1074;-88
2022/09/10 04:08:27;81935.00;0.27;142.38;0.00;0.00;0.62;;;;;20.90;1.00;;;;;;2272820;61;953;-87
2022/09/10 04:10:55;0.00;0.00;0.62;0.00;0.00;0.62;;;;;21.00;1.00;;;;;;2272721;61;2014;-87
2022/09/10 04:13:23;0.00;0.00;0.62;0.00;0.00;0.62;;;;;21.00;1.00;;;;;;2272784;61;1575;-88
2022/09/10 04:15:52;108137.00;0.36;187.62;0.00;0.00;0.62;;;;;21.10;1.00;;;;;;2272822;61;1022;-86
2022/09/10 04:18:19;21897.00;0.07;38.55;0.00;0.00;0.62;;;;;21.10;1.00;;;;;;2272754;61;1617;-88
2022/09/10 04:20:47;78337.00;0.26;136.16;0.00;0.00;0.62;;;;;20.80;1.00;;;;;;2272758;61;1269;-86
2022/09/10 04:23:15;0.00;0.00;0.62;0.00;0.00;0.62;;;;;20.80;1.00;;;;;;2272755;61;1063;-88
2022/09/10 04:25:42;42213.00;0.14;73.72;0.00;0.00;0.62;;;;;20.90;1.00;;;;;;2272772;61;1035;-87
2022/09/10 04:28:10;172227.00;0.57;298.10;0.00;0.00;0.62;;;;;20.80;1.00;;;;;;2272665;61;1137;-87
2022/09/10 04:30:37;152905.00;0.51;264.81;0.00;0.00;0.62;;;;;20.80;1.00;;;;;;2272683;61;1928;-87
2022/09/10 04:33:05;37318.00;0.12;65.25;0.00;0.00;0.62;;;;;21.10;1.00;;;;;;2272713;61;2199;-87
2022/09/10 04:35:32;17698.00;0.06;31.28;0.00;0.00;0.62;;;;;21.20;1.00;;;;;;2272715;61;889;-87
2022/09/10 04:37:59;0.00;0.00;0.62;0.00;0.00;0.62;;;;;21.30;1.00;;;;;;2272697;61;1089;-87
2022/09/10 04:40:26;383345.00;1.28;661.18;117427.00;0.39;203.64;;;;;21.40;1.00;;;;;;2272721;61;1261;-88
2022/09/10 04:42:53;0.00;0.00;0.62;0.00;0.00;0.62;;;;;21.40;1.00;;;;;;2272690;61;961;-87
2022/09/10 04:45:19;0.00;0.00;0.62;0.00;0.00;0.62;;;;;21.40;1.00;;;;;;2272640;61;1058;-87
2022/09/10 04:47:46;0.00;0.00;0.62;0.00;0.00;0.62;;;;;21.40;1.00;;;;;;2272690;61;949;-88
2022/09/10 04:50:15;0.00;0.00;0.62;0.00;0.00;0.62;;;;;21.30;1.00;;;;;;2272491;61;2027;-86
2022/09/10 04:52:42;0.00;0.00;0.62;0.00;0.00;0.62;;;;;21.10;1.00;;;;;;2272580;61;985;-87
2022/09/10 04:55:09;26962.00;0.09;47.32;0.00;0.00;0.62;;;;;21.20;1.00;;;;;;2272654;61;1084;-88
2022/09/10 04:57:36;0.00;0.00;0.62;0.00;0.00;0.62;;;;;21.30;1.00;;;;;;2272625;61;1110;-87
2022/09/10 05:00:05;0.00;0.00;0.62;0.00;0.00;0.62;;;;;21.40;1.00;;;;;;2272553;61;1343;-87
2022/09/10 05:02:33;8063.00;0.03;14.59;0.00;0.00;0.62;;;;;21.50;1.00;;;;;;2272515;61;976;-86
2022/09/10 05:05:00;0.00;0.00;0.62;0.00;0.00;0.62;;;;;21.60;1.00;;;;;;2272569;61;989;-86
2022/09/10 05:07:29;0.00;0.00;0.62;0.00;0.00;0.62;;;;;21.50;1.00;;;;;;2272586;61;1037;-87
2022/09/10 05:09:56;0.00;0.00;0.62;0.00;0.00;0.62;;;;;21.30;1.00;;;;;;2272276;61;1994;-88
2022/09/10 05:12:23;280616.00;0.94;484.60;59889.00;0.20;104.28;;;;;21.10;1.00;;;;;;2272520;61;1117;-88
2022/09/10 05:14:50;212589.00;0.71;367.59;53282.00;0.18;92.86;;;;;21.00;1.00;;;;;;2272526;61;1047;-89
2022/09/10 05:17:16;76202.00;0.25;132.48;0.00;0.00;0.62;;;;;21.00;1.00;;;;;;2272485;61;1006;-88
2022/09/10 05:19:43;0.00;0.00;0.62;0.00;0.00;0.62;;;;;20.80;1.00;;;;;;2272474;61;1659;-88
2022/09/10 05:22:10;142400.00;0.47;246.71;0.00;0.00;0.62;;;;;20.90;1.00;;;;;;2272442;61;1094;-85
2022/09/10 05:24:38;227580.00;0.76;393.39;12709.00;0.04;22.64;;;;;20.90;1.00;;;;;;2272462;61;1072;-88
2022/09/10 05:27:05;321695.00;1.07;555.21;55041.00;0.18;95.90;;;;;20.80;1.00;;;;;;2272463;61;1118;-87
2022/09/10 05:29:32;0.00;0.00;0.62;0.00;0.00;0.62;;;;;20.80;1.00;;;;;;2286186;40;3624;-85
2022/09/10 05:31:59;0.00;0.00;0.62;0.00;0.00;0.62;;;;;20.40;1.00;;;;;;2285277;61;1083;-83
2022/09/10 05:34:26;131266.00;0.44;227.51;9192.00;0.03;16.55;;;;;20.10;1.00;;;;;;2285225;61;816;-87
2022/09/10 05:36:53;17998.00;0.06;31.80;0.00;0.00;0.62;;;;;19.90;1.00;;;;;;2284614;60;1116;-88
2022/09/10 05:39:20;0.00;0.00;0.62;0.00;0.00;0.62;;;;;19.60;1.00;;;;;;2284142;60;1042;-86
2022/09/10 05:41:48;390981.00;1.30;674.30;81660.00;0.27;141.90;;;;;19.50;1.00;;;;;;2284444;60;1463;-86
2022/09/10 05:44:16;0.00;0.00;0.62;0.00;0.00;0.62;;;;;19.70;1.00;;;;;;2284568;60;1045;-89
2022/09/10 05:46:43;0.00;0.00;0.62;0.00;0.00;0.62;;;;;19.70;1.00;;;;;;2284563;60;1064;-86
2022/09/10 05:49:11;0.00;0.00;0.62;0.00;0.00;0.62;;;;;19.60;1.00;;;;;;2284510;60;2007;-86
2022/09/10 05:51:38;197899.00;0.66;342.31;17284.00;0.06;30.57;;;;;19.70;1.00;;;;;;2284532;60;1403;-86
2022/09/10 05:54:05;69679.00;0.23;121.21;0.00;0.00;0.62;;;;;19.90;1.00;;;;;;2284522;60;1081;-86
2022/09/10 05:56:33;10309.00;0.03;18.48;0.00;0.00;0.62;;;;;20.10;1.00;;;;;;2284526;60;1042;-87
2022/09/10 05:59:02;0.00;0.00;0.62;0.00;0.00;0.62;;;;;19.90;1.00;;;;;;2284474;60;2229;-85
2022/09/10 06:01:30;48546.00;0.16;84.67;0.00;0.00;0.62;;;;;19.90;1.00;;;;;;2284449;60;1310;-85
2022/09/10 06:03:57;0.00;0.00;0.62;0.00;0.00;0.62;;;;;20.10;1.00;;;;;;2284493;60;1248;-86
2022/09/10 06:06:26;0.00;0.00;0.62;0.00;0.00;0.62;;;;;20.20;1.00;;;;;;2284442;60;1541;-86
2022/09/10 06:08:53;0.00;0.00;0.62;0.00;0.00;0.62;;;;;20.20;1.00;;;;;;2284493;60;1121;-86
2022/09/10 06:11:20;11117.00;0.04;19.88;0.00;0.00;0.62;;;;;20.10;1.00;;;;;;2284432;60;1920;-85
2022/09/10 06:13:47;0.00;0.00;0.62;0.00;0.00;0.62;;;;;20.30;1.00;;;;;;2284461;60;1058;-86
2022/09/10 06:16:17;0.00;0.00;0.62;0.00;0.00;0.62;;;;;20.30;1.00;;;;;;2284445;60;924;-86
2022/09/10 06:18:44;0.00;0.00;0.62;0.00;0.00;0.62;;;;;20.30;1.00;;;;;;2284444;60;1087;-85
2022/09/10 06:21:13;56461.00;0.19;98.36;0.00;0.00;0.62;;;;;20.50;1.00;;;;;;2284357;60;1277;-85
2022/09/10 06:23:40;0.00;0.00;0.62;0.00;0.00;0.62;;;;;20.50;1.00;;;;;;2284329;60;1446;-86
2022/09/10 06:26:11;0.00;0.00;0.62;0.00;0.00;0.62;;;;;20.60;1.00;;;;;;2284228;60;1060;-87
2022/09/10 06:28:38;0.00;0.00;0.62;0.00;0.00;0.62;;;;;20.70;1.00;;;;;;2284331;60;1121;-87
2022/09/10 06:31:05;0.00;0.00;0.62;0.00;0.00;0.62;;;;;20.70;1.00;;;;;;2284334;60;1923;-87
2022/09/10 06:33:34;0.00;0.00;0.62;0.00;0.00;0.62;;;;;20.60;1.00;;;;;;2284326;60;1093;-86
2022/09/10 06:36:03;0.00;0.00;0.62;0.00;0.00;0.62;;;;;20.40;1.00;;;;;;2284337;60;1128;-85
2022/09/10 06:38:32;60862.00;0.20;105.97;0.00;0.00;0.62;;;;;20.60;1.00;;;;;;2284335;60;1518;-86
2022/09/10 06:41:01;0.00;0.00;0.62;0.00;0.00;0.62;;;;;20.40;1.00;;;;;;2284288;60;1366;-88
2022/09/10 06:43:31;23626.00;0.08;41.55;0.00;0.00;0.62;;;;;20.40;1.00;;;;;;2284361;60;962;-86
2022/09/10 06:45:58;177871.00;0.59;307.82;0.00;0.00;0.62;;;;;20.30;1.00;;;;;;2284274;60;1130;-87
2022/09/10 06:48:27;0.00;0.00;0.62;0.00;0.00;0.62;;;;;19.90;1.00;;;;;;2284202;60;1010;-85
2022/09/10 06:50:56;0.00;0.00;0.62;0.00;0.00;0.62;;;;;19.90;1.00;;;;;;2284126;60;2008;-86
2022/09/10 06:53:25;252016.00;0.84;435.42;20825.00;0.07;36.70;;;;;20.00;1.00;;;;;;2285024;60;933;-87
2022/09/10 06:55:52;57299.00;0.19;99.81;0.00;0.00;0.62;;;;;20.20;1.00;;;;;;2285000;60;1106;-87
2022/09/10 06:58:21;165863.00;0.55;287.14;0.00;0.00;0.62;;;;;20.40;1.00;;;;;;2285040;60;927;-89
2022/09/10 07:00:48;4782.00;0.02;8.91;0.00;0.00;0.62;;;;;20.60;1.00;;;;;;2284934;60;2403;-86
2022/09/10 07:03:16;283581.00;0.95;489.69;74390.00;0.25;129.35;;;;;20.50;1.00;;;;;;2284992;60;1078;-87
2022/09/10 07:05:44;0.00;0.00;0.62;0.00;0.00;0.62;;;;;20.50;1.00;;;;;;2284944;60;1096;-87
2022/09/10 07:08:14;48272.00;0.16;84.20;0.00;0.00;0.62;;;;;20.20;1.00;;;;;;2284990;60;1238;-87
2022/09/10 07:10:44;80576.00;0.27;140.03;0.00;0.00;0.62;;;;;20.10;1.00;;;;;;2284895;60;2014;-87
2022/09/10 07:13:12;0.00;0.00;0.62;0.00;0.00;0.62;;;;;20.10;1.00;;;;;;2284988;60;1105;-87
2022/09/10 07:15:45;0.00;0.00;0.62;0.00;0.00;0.62;;;;;20.30;1.00;;;;;;2284779;60;1037;-88
2022/09/10 07:18:14;0.00;0.00;0.62;0.00;0.00;0.62;;;;;20.50;1.00;;;;;;2284970;60;1093;-87
2022/09/10 07:20:42;11697.00;0.04;20.89;0.00;0.00;0.62;;;;;20.40;1.00;;;;;;2284945;60;1347;-87
2022/09/10 07:23:09;0.00;0.00;0.62;0.00;0.00;0.62;;;;;20.30;1.00;;;;;;2284941;60;1109;-88
2022/09/10 07:25:38;21302.00;0.07;37.52;0.00;0.00;0.62;;;;;20.10;1.00;;;;;;2284837;60;1065;-88
2022/09/10 07:28:05;0.00;0.00;0.62;0.00;0.00;0.62;;;;;19.90;1.00;;;;;;2284928;60;1012;-87
2022/09/10 07:30:34;0.00;0.00;0.62;0.00;0.00;0.62;;;;;20.00;1.00;;;;;;2284842;60;1911;-86
2022/09/10 07:33:01;0.00;0.00;0.62;0.00;0.00;0.62;;;;;20.20;1.00;;;;;;2284926;60;1014;-87
2022/09/10 07:35:28;236.00;0.00;1.03;0.00;0.00;0.62;;;;;20.60;1.00;;;;;;2284838;60;1620;-87
2022/09/10 07:37:55;16924.00;0.06;29.94;0.00;0.00;0.62;;;;;21.00;1.00;;;;;;2284816;60;1036;-86
2022/09/10 07:40:22;0.00;0.00;0.62;0.00;0.00;0.62;;;;;21.40;1.00;;;;;;2284758;60;1379;-87
2022/09/10 07:42:51;0.00;0.00;0.62;0.00;0.00;0.62;;;;;21.40;1.00;;;;;;2284825;60;1083;-86
2022/09/10 07:45:18;0.00;0.00;0.62;0.00;0.00;0.62;;;;;21.50;1.00;;;;;;2284793;60;1124;-87
2022/09/10 07:47:45;0.00;0.00;0.62;0.00;0.00;0.62;;;;;21.30;1.00;;;;;;2284754;60;1045;-86
2022/09/10 07:50:11;104515.00;0.35;181.36;0.00;0.00;0.62;;;;;21.10;1.00;;;;;;2284660;60;1923;-84
2022/09/10 07:52:38;0.00;0.00;0.62;0.00;0.00;0.62;;;;;20.60;1.00;;;;;;2284789;60;1086;-86
2022/09/10 07:55:06;0.00;0.00;0.62;0.00;0.00;0.62;;;;;20.80;1.00;;;;;;2284703;60;1064;-87
2022/09/10 07:57:36;0.00;0.00;0.62;0.00;0.00;0.62;;;;;20.70;1.00;;;;;;2284650;60;1005;-87
2022/09/10 08:00:07;0.00;0.00;0.62;0.00;0.00;0.62;;;;;20.60;1.00;;;;;;2284683;60;1689;-86
2022/09/10 08:02:33;0.00;0.00;0.62;0.00;0.00;0.62;;;;;20.30;1.00;;;;;;2284692;60;1058;-87
2022/09/10 08:05:00;0.00;0.00;0.62;0.00;0.00;0.62;;;;;20.50;1.00;;;;;;2284726;60;1126;-87
2022/09/10 08:07:27;66806.00;0.22;116.24;0.00;0.00;0.62;;;;;20.60;1.00;;;;;;2284798;60;1085;-86
2022/09/10 08:09:54;0.00;0.00;0.62;0.00;0.00;0.62;;;;;20.90;1.00;;;;;;2284767;60;1992;-87
2022/09/10 08:12:21;41433.00;0.14;72.37;0.00;0.00;0.62;;;;;21.00;1.00;;;;;;2284778;60;1009;-85
2022/09/10 08:14:47;117977.00;0.39;204.59;0.00;0.00;0.62;;;;;21.40;1.00;;;;;;2284821;60;1063;-85
2022/09/10 08:17:16;0.00;0.00;0.62;0.00;0.00;0.62;;;;;21.60;1.00;;;;;;2284687;60;1117;-84
2022/09/10 08:19:42;0.00;0.00;0.62;0.00;0.00;0.62;;;;;21.70;1.00;;;;;;2284840;60;1370;-86
2022/09/10 08:22:09;0.00;0.00;0.62;0.00;0.00;0.62;;;;;22.30;1.00;;;;;;2284831;60;1030;-86
2022/09/10 08:24:36;0.00;0.00;0.62;0.00;0.00;0.62;;;;;23.30;1.00;;;;;;2284860;60;1190;-85
2022/09/10 08:27:03;265842.00;0.89;459.19;133230.00;0.44;230.90;;;;;23.70;1.00;;;;;;2284709;60;1232;-85
2022/09/10 08:29:30;0.00;0.00;0.62;0.00;0.00;0.62;;;;;23.60;1.00;;;;;;2284719;60;1342;-86
2022/09/10 08:31:57;0.00;0.00;0.62;0.00;0.00;0.62;;;;;23.50;1.00;;;;;;2284770;60;2011;-87
2022/09/10 08:34:26;22594.00;0.08;39.76;0.00;0.00;0.62;;;;;24.00;1.00;;;;;;2284817;60;1104;-86
2022/09/10 08:36:54;0.00;0.00;0.62;0.00;0.00;0.62;;;;;24.30;1.00;;;;;;2284750;60;1066;-84
2022/09/10 08:39:21;50998.00;0.17;88.91;0.00;0.00;0.62;;;;;25.00;1.00;;;;;;2284778;60;1095;-84
2022/09/10 08:41:55;50628.00;0.17;88.27;0.00;0.00;0.62;;;;;25.00;1.00;;;;;;2284764;60;1461;-86
2022/09/10 08:44:31;0.00;0.00;0.62;0.00;0.00;0.62;;;;;25.10;1.00;;;;;;2284811;60;1085;-85
2022/09/10 08:47:05;0.00;0.00;0.62;0.00;0.00;0.62;;;;;25.40;1.00;;;;;;2284768;60;1010;-86
2022/09/10 08:49:40;0.00;0.00;0.62;0.00;0.00;0.62;;;;;25.70;1.00;;;;;;2284773;60;1586;-87
2022/09/10 08:52:19;27376.00;0.09;48.04;0.00;0.00;0.62;;;;;25.90;1.00;;;;;;2284683;60;1990;-85
2022/09/10 08:54:57;0.00;0.00;0.62;0.00;0.00;0.62;;;;;25.90;1.00;;;;;;2284727;60;1086;-87
2022/09/10 08:57:29;69724.00;0.23;121.28;0.00;0.00;0.62;;;;;25.20;1.00;;;;;;2284619;60;1047;-85
2022/09/10 08:59:58;5591.00;0.02;10.31;0.00;0.00;0.62;;;;;24.40;1.00;;;;;;2284610;60;1384;-86
2022/09/10 09:02:34;0.00;0.00;0.62;0.00;0.00;0.62;;;;;24.10;1.00;;;;;;2284818;60;1110;-86
2022/09/10 09:05:13;0.00;0.00;0.62;0.00;0.00;0.62;;;;;24.00;1.00;;;;;;2284674;60;1037;-85
2022/09/10 09:07:40;0.00;0.00;0.62;0.00;0.00;0.62;;;;;23.80;1.00;;;;;;2284685;60;2102;-87
2022/09/10 09:10:18;25279.00;0.08;44.41;0.00;0.00;0.62;;;;;23.60;1.00;;;;;;2283486;60;1753;-85
2022/09/10 09:12:59;147997.00;0.49;256.36;0.00;0.00;0.62;;;;;23.60;1.00;;;;;;2280684;61;1159;-85
2022/09/10 09:15:35;0.00;0.00;0.62;0.00;0.00;0.62;;;;;23.80;1.00;;;;;;2280538;61;1105;-85
2022/09/10 09:18:14;0.00;0.00;0.62;0.00;0.00;0.62;;;;;23.80;1.00;;;;;;2280477;61;1081;-85
2022/09/10 09:20:45;0.00;0.00;0.62;0.00;0.00;0.62;;;;;23.90;1.00;;;;;;2280514;61;1399;-85
2022/09/10 09:23:21;0.00;0.00;0.62;0.00;0.00;0.62;;;;;23.50;1.00;;;;;;2280625;61;1125;-85
2022/09/10 09:25:50;108079.00;0.36;187.52;0.00;0.00;0.62;;;;;23.20;1.00;;;;;;2280506;61;1061;-85
2022/09/10 09:28:28;0.00;0.00;0.62;0.00;0.00;0.62;;;;;22.80;1.00;;;;;;2280556;61;1132;-86
2022/09/10 09:31:01;0.00;0.00;0.62;0.00;0.00;0.62;;;;;22.40;1.00;;;;;;2280527;61;1993;-86
2022/09/10 09:33:30;22482.00;0.07;39.57;0.00;0.00;0.62;;;;;22.50;1.00;;;;;;2280506;61;1044;-85
2022/09/10 09:36:01;187932.00;0.63;325.15;37326.00;0.12;65.26;;;;;22.40;1.00;;;;;;2280587;61;1602;-86
2022/09/10 09:38:34;0.00;0.00;0.62;0.00;0.00;0.62;;;;;22.40;1.00;;;;;;2280495;61;1018;-86
2022/09/10 09:41:07;0.00;0.00;0.62;0.00;0.00;0.62;;;;;23.00;1.00;;;;;;2280523;61;1361;-86
2022/09/10 09:43:51;4495.00;0.01;8.41;0.00;0.00;0.62;;;;;23.10;1.00;;;;;;2280549;61;1604;-85
2022/09/10 09:46:21;24102.00;0.08;42.37;0.00;0.00;0.62;;;;;23.20;1.00;;;;;;2280545;61;1565;-85
2022/09/10 09:48:52;14370.00;0.05;25.52;0.00;0.00;0.62;;;;;23.20;1.00;;;;;;2280412;61;1663;-85
2022/09/10 09:51:22;0.00;0.00;0.62;0.00;0.00;0.62;;;;;23.60;1.00;;;;;;2280506;61;2001;-85
2022/09/10 09:53:51;0.00;0.00;0.62;0.00;0.00;0.62;;;;;23.60;1.00;;;;;;2280423;61;1118;-86
2022/09/10 09:56:24;44708.00;0.15;78.03;0.00;0.00;0.62;;;;;23.60;1.00;;;;;;2280568;61;1188;-85
2022/09/10 09:58:52;0.00;0.00;0.62;0.00;0.00;0.62;;;;;23.30;1.00;;;;;;2280562;61;1010;-85
2022/09/10 10:01:22;0.00;0.00;0.62;0.00;0.00;0.62;;;;;23.30;1.00;;;;;;2280401;61;1395;-85
2022/09/10 10:03:57;0.00;0.00;0.62;0.00;0.00;0.62;;;;;23.00;1.00;;;;;;2280528;61;1177;-85
2022/09/10 10:06:29;621028.00;2.07;1070.54;118539.00;0.40;205.56;;;;;22.90;1.00;;;;;;2280468;61;1280;-86
2022/09/10 10:09:00;559734.00;1.87;964.74;27387.00;0.09;48.06;;;;;22.80;1.00;;;;;;2280509;61;1242;-85
2022/09/10 10:11:50;630759.00;2.10;1087.36;20647.00;0.07;36.39;;;;;22.90;1.00;;;;;;2280407;61;2000;-85
2022/09/10 10:14:38;0.00;0.00;0.62;0.00;0.00;0.62;;;;;23.10;1.00;;;;;;2280423;61;2174;-85
2022/09/10 10:17:28;0.00;0.00;0.62;0.00;0.00;0.62;;;;;23.30;1.00;;;;;;2280405;61;1144;-86
2022/09/10 10:20:01;573439.00;1.91;988.38;67896.00;0.23;118.12;;;;;23.80;1.00;;;;;;2280371;61;1485;-86
2022/09/10 10:22:30;1657715.00;5.53;2943.56;115865.00;0.39;200.95;;;;;23.90;1.00;;;;;;2280375;61;1772;-84
2022/09/10 10:24:59;1569717.00;5.23;2775.00;205345.00;0.68;355.12;;;;;23.50;1.00;;;;;;2280389;61;1031;-86
2022/09/10 10:27:32;229349.00;0.76;396.43;27579.00;0.09;48.39;;;;;23.30;1.00;;;;;;2280275;61;1133;-85
2022/09/10 10:30:07;380004.00;1.27;655.43;100986.00;0.34;175.27;;;;;23.30;1.00;;;;;;2280335;61;1428;-86